Time;durP1;ratioP1;P1;durP2;ratioP2;P2;SDS_P1;SDS_P2;PMS_P1;PMS_P2;Temp;Humidity;BMP_temperature;BMP_pressure;BME280_temperature;BME280_humidity;BME280_pressure;Samples;Min_cycle;Max_cycle;Signal;HPM_P1;HPM_P2
2022/08/13 00:02:12;;;;;;;1999.90;999.90;;;14.10;74.00;;;;;;4968601;28;20035;-85
2022/08/13 00:04:42;;;;;;;1999.90;999.90;;;14.10;74.70;;;;;;4966250;28;20027;-85
2022/08/13 00:07:08;;;;;;;1999.90;999.90;;;14.10;74.80;;;;;;4967863;28;20042;-85
2022/08/13 00:09:40;;;;;;;1999.90;999.90;;;14.00;75.00;;;;;;4935383;28;20109;-85
2022/08/13 00:15:11;;;;;;;1999.90;999.90;;;13.80;76.80;;;;;;4969385;28;20029;-85
2022/08/13 00:17:37;;;;;;;1999.90;999.90;;;13.80;76.40;;;;;;4963420;28;20035;-86
2022/08/13 00:20:05;;;;;;;1999.90;999.90;;;13.70;78.10;;;;;;4950562;28;20081;-86
2022/08/13 00:22:31;;;;;;;1999.90;999.90;;;13.60;77.40;;;;;;4966257;28;20045;-85
2022/08/13 00:24:59;;;;;;;1999.90;999.90;;;13.50;77.80;;;;;;4962404;28;20027;-86
2022/08/13 00:27:26;;;;;;;1999.90;999.90;;;13.50;78.70;;;;;;4967263;28;20035;-86
2022/08/13 00:29:56;;;;;;;1999.90;999.90;;;13.40;79.40;;;;;;4947119;28;20034;-86
2022/08/13 00:32:29;;;;;;;1999.90;999.90;;;13.30;79.60;;;;;;4967646;28;20194;-85
2022/08/13 00:34:59;;;;;;;1999.90;999.90;;;13.40;79.60;;;;;;4952184;28;20121;-85
2022/08/13 00:37:26;;;;;;;1999.90;999.90;;;13.40;79.20;;;;;;4968442;28;20125;-86
2022/08/13 00:39:53;;;;;;;1999.90;999.90;;;13.30;79.20;;;;;;4966852;28;20110;-85
2022/08/13 00:42:25;;;;;;;1999.90;999.90;;;13.20;79.60;;;;;;4966668;28;20066;-84
2022/08/13 00:44:51;;;;;;;1999.90;999.90;;;13.30;80.30;;;;;;4950886;28;20518;-85
2022/08/13 00:50:04;;;;;;;1999.90;999.90;;;13.20;80.40;;;;;;4964379;28;20312;-85
2022/08/13 00:52:38;;;;;;;1999.90;999.90;;;13.20;80.10;;;;;;4951614;28;20716;-85
2022/08/13 00:55:17;;;;;;;1999.90;999.90;;;13.20;81.20;;;;;;4948903;28;20297;-85
2022/08/13 00:57:44;;;;;;;1999.90;999.90;;;13.10;80.30;;;;;;4959488;28;20062;-86
2022/08/13 01:00:15;;;;;;;1999.90;999.90;;;13.10;81.40;;;;;;4963615;28;20062;-86
2022/08/13 01:02:43;;;;;;;1999.90;999.90;;;13.10;81.80;;;;;;4949564;28;20047;-86
2022/08/13 01:05:09;;;;;;;1999.90;999.90;;;13.00;82.50;;;;;;4965970;28;20031;-86
2022/08/13 01:07:40;;;;;;;1999.90;999.90;;;12.80;82.80;;;;;;4950416;28;20031;-86
2022/08/13 01:10:06;;;;;;;1999.90;999.90;;;12.70;84.70;;;;;;4956706;28;20031;-86
2022/08/13 01:12:35;;;;;;;1999.90;999.90;;;12.70;84.00;;;;;;4948485;28;20043;-85
2022/08/13 01:15:02;;;;;;;1999.90;999.90;;;12.70;85.20;;;;;;4949217;28;20055;-86
2022/08/13 01:17:28;;;;;;;1999.90;999.90;;;12.70;85.20;;;;;;4950398;28;20043;-86
2022/08/13 01:19:55;;;;;;;1999.90;999.90;;;12.70;84.70;;;;;;4963939;28;20089;-85
2022/08/13 01:22:23;;;;;;;1999.90;999.90;;;12.70;85.40;;;;;;4947436;28;20238;-86
2022/08/13 01:24:50;;;;;;;1999.90;999.90;;;12.80;85.00;;;;;;4950671;28;20037;-86
2022/08/13 01:27:18;;;;;;;1999.90;999.90;;;12.70;85.60;;;;;;4948617;28;20061;-86
2022/08/13 01:29:46;;;;;;;1999.90;999.90;;;12.70;85.70;;;;;;4964174;28;20023;-85
2022/08/13 01:32:15;;;;;;;1999.90;999.90;;;12.60;86.20;;;;;;4966594;28;20039;-85
2022/08/13 01:34:45;;;;;;;1999.90;999.90;;;12.60;86.80;;;;;;4948397;28;20039;-86
2022/08/13 01:37:13;;;;;;;1999.90;999.90;;;12.60;87.00;;;;;;4967454;28;20498;-86
2022/08/13 01:39:39;;;;;;;1999.90;999.90;;;12.50;87.10;;;;;;4967546;28;20034;-85
2022/08/13 01:42:17;;;;;;;1999.90;999.90;;;12.50;87.80;;;;;;4964034;28;20093;-86
2022/08/13 01:44:45;;;;;;;1999.90;999.90;;;12.50;87.10;;;;;;4946925;28;20062;-87
2022/08/13 01:52:45;;;;;;;1999.90;999.90;;;12.50;88.00;;;;;;4966314;28;20085;-86
2022/08/13 01:55:12;;;;;;;1999.90;999.90;;;12.50;87.80;;;;;;4966509;28;20034;-86
2022/08/13 01:57:40;;;;;;;1999.90;999.90;;;12.50;88.50;;;;;;4964654;28;20138;-86
2022/08/13 02:00:08;;;;;;;1999.90;999.90;;;12.50;88.20;;;;;;4949399;28;20042;-86
2022/08/13 02:02:34;;;;;;;1999.90;999.90;;;12.50;88.60;;;;;;4960154;28;20058;-86
2022/08/13 02:05:00;;;;;;;1999.90;999.90;;;12.30;89.20;;;;;;4967283;28;20108;-86
2022/08/13 02:07:25;;;;;;;1999.90;999.90;;;12.30;89.80;;;;;;4947837;28;20037;-86
2022/08/13 02:09:52;;;;;;;1999.90;999.90;;;12.40;90.30;;;;;;4965302;28;20026;-86
2022/08/13 02:12:18;;;;;;;1999.90;999.90;;;12.40;90.00;;;;;;4964784;28;20030;-86
2022/08/13 02:14:43;;;;;;;1999.90;999.90;;;12.30;89.90;;;;;;4962521;28;20027;-86
2022/08/13 02:17:25;;;;;;;1999.90;999.90;;;12.40;89.80;;;;;;4947190;28;20038;-85
2022/08/13 02:19:53;;;;;;;1999.90;999.90;;;12.40;90.10;;;;;;4950670;28;20045;-87
2022/08/13 02:22:19;;;;;;;1999.90;999.90;;;12.30;90.40;;;;;;4948901;28;20103;-86
2022/08/13 02:24:53;;;;;;;1999.90;999.90;;;12.30;90.10;;;;;;4965718;28;20494;-86
2022/08/13 02:27:21;;;;;;;1999.90;999.90;;;12.20;90.80;;;;;;4966270;28;20034;-86
2022/08/13 02:29:49;;;;;;;1999.90;999.90;;;12.10;91.20;;;;;;4932126;28;20113;-86
2022/08/13 02:32:16;;;;;;;1999.90;999.90;;;12.00;91.00;;;;;;4935903;28;20121;-86
2022/08/13 02:34:47;;;;;;;1999.90;999.90;;;12.10;91.00;;;;;;4930467;29;20055;-86
2022/08/13 02:37:13;;;;;;;;;;;12.10;91.40;;;;;;4944216;29;20047;-86
2022/08/13 02:39:39;;;;;;;1999.90;999.90;;;12.10;91.90;;;;;;4928140;29;19921;-86
2022/08/13 02:42:06;;;;;;;1999.90;999.90;;;12.10;91.90;;;;;;4929824;29;20247;-86
2022/08/13 02:44:32;;;;;;;1999.90;999.90;;;12.10;91.90;;;;;;4946964;29;20352;-86
2022/08/13 02:46:57;;;;;;;1999.90;999.90;;;12.20;91.70;;;;;;4930372;29;20052;-86
2022/08/13 02:49:23;;;;;;;1999.90;999.90;;;12.00;92.10;;;;;;4924749;29;20682;-86
2022/08/13 02:51:49;;;;;;;1999.90;999.90;;;11.90;92.30;;;;;;4928773;29;20031;-86
2022/08/13 02:54:17;;;;;;;1999.90;999.90;;;11.90;92.50;;;;;;4912351;29;20672;-86
2022/08/13 02:56:43;;;;;;;1999.90;999.90;;;11.80;93.10;;;;;;4946998;29;20628;-87
2022/08/13 02:59:10;;;;;;;1999.90;999.90;;;11.90;93.00;;;;;;4946887;29;20039;-86
2022/08/13 03:01:40;;;;;;;1999.90;999.90;;;11.80;93.00;;;;;;4938346;28;20039;-87
2022/08/13 03:04:09;;;;;;;1999.90;999.90;;;11.70;93.40;;;;;;4963981;28;20780;-87
2022/08/13 03:06:36;;;;;;;1999.90;999.90;;;11.70;93.30;;;;;;4965438;28;20045;-87
2022/08/13 03:09:03;;;;;;;1999.90;999.90;;;11.70;93.80;;;;;;4948394;28;20026;-87
2022/08/13 03:11:29;;;;;;;1999.90;999.90;;;11.80;93.70;;;;;;4944894;28;20053;-87
2022/08/13 03:14:13;;;;;;;1999.90;999.90;;;11.80;93.80;;;;;;4932582;28;20228;-86
2022/08/13 03:16:42;;;;;;;1999.90;999.90;;;11.70;94.00;;;;;;4962261;28;20027;-87
2022/08/13 03:19:08;;;;;;;1999.90;999.90;;;11.80;94.20;;;;;;4929965;28;20043;-87
2022/08/13 03:21:45;;;;;;;1999.90;999.90;;;11.80;94.00;;;;;;4952032;28;20038;-87
2022/08/13 03:24:15;;;;;;;1999.90;999.90;;;11.80;94.40;;;;;;4943484;28;20058;-88
2022/08/13 03:26:41;;;;;;;1999.90;999.90;;;11.70;94.20;;;;;;4951067;28;20034;-87
2022/08/13 03:29:07;;;;;;;1999.90;999.90;;;11.70;94.60;;;;;;4950247;28;20336;-86
2022/08/13 03:31:36;;;;;;;1999.90;999.90;;;11.60;95.30;;;;;;4951643;28;20031;-87
2022/08/13 03:34:03;;;;;;;1999.90;999.90;;;11.60;95.70;;;;;;4969610;28;20046;-87
2022/08/13 03:36:32;;;;;;;1999.90;999.90;;;11.60;95.80;;;;;;4965414;28;20419;-87
2022/08/13 03:38:59;;;;;;;1999.90;999.90;;;11.60;96.30;;;;;;4969625;28;20054;-87
2022/08/13 03:41:26;;;;;;;1999.90;999.90;;;11.70;95.70;;;;;;4967017;28;20039;-88
2022/08/13 03:43:53;;;;;;;1999.90;999.90;;;11.80;96.00;;;;;;4952878;28;20034;-87
2022/08/13 03:46:21;;;;;;;1999.90;999.90;;;11.70;95.70;;;;;;4952760;28;20412;-87
2022/08/13 03:48:48;;;;;;;1999.90;999.90;;;11.80;95.90;;;;;;4967547;28;20035;-87
2022/08/13 03:51:16;;;;;;;1999.90;999.90;;;11.80;95.70;;;;;;4967733;28;20037;-87
2022/08/13 03:53:43;;;;;;;1999.90;999.90;;;11.90;95.50;;;;;;4935901;28;20039;-88
2022/08/13 03:56:11;;;;;;;1999.90;999.90;;;11.80;95.80;;;;;;4957060;28;20525;-86
2022/08/13 03:58:38;;;;;;;1999.90;999.90;;;11.80;95.90;;;;;;4968307;28;20031;-86
2022/08/13 04:01:04;;;;;;;1999.90;999.90;;;11.60;96.00;;;;;;4950744;28;20042;-87
2022/08/13 04:03:41;;;;;;;1999.90;999.90;;;11.50;96.20;;;;;;4980930;28;20039;-88
2022/08/13 04:06:15;;;;;;;1999.90;999.90;;;11.40;96.50;;;;;;4950718;28;20129;-87
2022/08/13 04:08:42;;;;;;;1999.90;999.90;;;11.40;97.30;;;;;;4968495;28;20070;-86
2022/08/13 04:11:13;;;;;;;1999.90;999.90;;;11.40;96.90;;;;;;4964412;28;20074;-87
2022/08/13 04:13:38;;;;;;;;;;;11.40;97.50;;;;;;4968450;28;20026;-86
2022/08/13 04:16:07;;;;;;;1999.90;999.90;;;11.40;98.40;;;;;;4968305;28;19916;-87
2022/08/13 04:18:35;;;;;;;1999.90;999.90;;;11.40;97.70;;;;;;4969307;28;20033;-87
2022/08/13 04:21:03;;;;;;;1999.90;999.90;;;11.40;98.20;;;;;;4951702;28;20126;-87
2022/08/13 04:23:29;;;;;;;1999.90;999.90;;;11.40;98.40;;;;;;4950065;28;20034;-86
2022/08/13 04:25:55;;;;;;;1999.90;999.90;;;11.40;98.40;;;;;;4951533;28;20042;-87
2022/08/13 04:28:21;;;;;;;1999.90;999.90;;;11.30;98.30;;;;;;4968037;28;20105;-87
2022/08/13 04:30:47;;;;;;;1999.90;999.90;;;11.40;98.90;;;;;;4976928;28;20635;-87
2022/08/13 04:33:14;;;;;;;1999.90;999.90;;;11.40;98.50;;;;;;4966231;28;20042;-87
2022/08/13 04:35:46;;;;;;;1999.90;999.90;;;11.40;98.70;;;;;;4965335;28;20482;-87
2022/08/13 04:38:13;;;;;;;1999.90;999.90;;;11.40;99.20;;;;;;4966306;28;20043;-87
2022/08/13 04:40:42;;;;;;;1999.90;999.90;;;11.40;99.60;;;;;;4968964;28;20533;-86
2022/08/13 04:43:10;;;;;;;1999.90;999.90;;;11.50;99.20;;;;;;4967211;28;20520;-86
2022/08/13 04:45:36;;;;;;;1999.90;999.90;;;11.50;99.20;;;;;;4978562;28;20069;-87
2022/08/13 04:48:07;;;;;;;1999.90;999.90;;;11.60;98.80;;;;;;4968305;28;20691;-86
2022/08/13 04:50:34;;;;;;;1999.90;999.90;;;11.70;98.50;;;;;;4951570;28;20445;-87
2022/08/13 04:53:05;;;;;;;1999.90;999.90;;;11.70;98.40;;;;;;4968407;28;20027;-86
2022/08/13 04:55:31;;;;;;;1999.90;999.90;;;11.70;98.70;;;;;;4964598;28;20062;-87
2022/08/13 04:57:57;;;;;;;1999.90;999.90;;;11.80;98.30;;;;;;4968683;28;20085;-87
2022/08/13 05:00:24;;;;;;;1999.90;999.90;;;11.80;98.60;;;;;;4959835;28;20458;-87
2022/08/13 05:02:52;;;;;;;1999.90;999.90;;;11.70;98.70;;;;;;4949693;28;20038;-87
2022/08/13 05:05:22;;;;;;;1999.90;999.90;;;11.70;98.90;;;;;;4966370;28;20430;-85
2022/08/13 05:07:51;;;;;;;1999.90;999.90;;;11.70;99.20;;;;;;4964281;28;20031;-87
2022/08/13 05:10:18;;;;;;;1999.90;999.90;;;11.70;99.00;;;;;;4967571;28;20407;-87
2022/08/13 05:12:43;;;;;;;1999.90;999.90;;;11.80;98.80;;;;;;4965505;28;20056;-87
2022/08/13 05:15:13;;;;;;;1999.90;999.90;;;11.80;98.90;;;;;;4949925;28;20042;-87
2022/08/13 05:17:40;;;;;;;1999.90;999.90;;;11.90;98.70;;;;;;4964665;28;20208;-86
2022/08/13 05:20:09;;;;;;;1999.90;999.90;;;12.00;98.40;;;;;;4963980;28;20038;-86
2022/08/13 05:22:34;;;;;;;1999.90;999.90;;;12.00;98.40;;;;;;4967084;28;20411;-87
2022/08/13 05:25:00;;;;;;;1999.90;999.90;;;12.20;97.90;;;;;;4967543;28;20513;-87
2022/08/13 05:27:26;;;;;;;1999.90;999.90;;;12.30;97.60;;;;;;4933313;28;20576;-87
2022/08/13 05:29:51;;;;;;;1999.90;999.90;;;12.40;97.20;;;;;;4944718;28;20038;-86
2022/08/13 05:32:17;;;;;;;1999.90;999.90;;;12.60;97.00;;;;;;4933309;28;20535;-87
2022/08/13 05:34:43;;;;;;;1999.90;999.90;;;12.60;97.00;;;;;;4948702;29;20113;-86
2022/08/13 05:37:15;;;;;;;1999.90;999.90;;;12.80;96.30;;;;;;4963921;28;20045;-87
2022/08/13 05:39:43;;;;;;;1999.90;999.90;;;12.90;95.60;;;;;;4942133;29;20411;-87
2022/08/13 05:42:10;;;;;;;1999.90;999.90;;;12.90;95.30;;;;;;4945167;28;20502;-88
2022/08/13 05:44:35;;;;;;;1999.90;999.90;;;13.00;95.00;;;;;;4931451;29;20035;-87
2022/08/13 05:47:01;;;;;;;1999.90;999.90;;;13.10;94.60;;;;;;4931635;29;20094;-87
2022/08/13 05:49:27;;;;;;;1999.90;999.90;;;13.10;94.60;;;;;;4946752;29;20446;-87
2022/08/13 05:51:52;;;;;;;1999.90;999.90;;;13.20;94.50;;;;;;4946812;28;20035;-88
2022/08/13 05:54:19;;;;;;;1999.90;999.90;;;13.20;94.50;;;;;;4916127;29;20087;-87
2022/08/13 05:56:45;;;;;;;1999.90;999.90;;;13.30;94.20;;;;;;4931380;29;20047;-87
2022/08/13 06:04:40;;;;;;;1999.90;999.90;;;13.50;93.30;;;;;;4969570;28;20461;-87
2022/08/13 06:07:09;;;;;;;1999.90;999.90;;;13.40;94.00;;;;;;4951429;28;20039;-87
2022/08/13 06:09:35;;;;;;;1999.90;999.90;;;13.40;94.20;;;;;;4965408;28;20106;-87
2022/08/13 06:12:01;;;;;;;1999.90;999.90;;;13.40;93.80;;;;;;4967466;28;20242;-86
2022/08/13 06:14:31;;;;;;;1999.90;999.90;;;13.50;93.70;;;;;;4967220;28;20086;-87
2022/08/13 06:16:58;;;;;;;1999.90;999.90;;;13.60;94.50;;;;;;4972596;28;20510;-86
2022/08/13 06:19:25;;;;;;;1999.90;999.90;;;13.70;93.50;;;;;;4952350;28;20053;-87
2022/08/13 06:21:51;;;;;;;1999.90;999.90;;;13.90;92.90;;;;;;4941022;28;20460;-87
2022/08/13 06:24:17;;;;;;;1999.90;999.90;;;14.00;93.50;;;;;;4941630;28;20350;-87
2022/08/13 06:26:43;;;;;;;1999.90;999.90;;;14.00;93.20;;;;;;4969930;28;20740;-86
2022/08/13 06:29:10;;;;;;;1999.90;999.90;;;14.00;93.70;;;;;;4951630;28;20533;-85
2022/08/13 06:31:39;;;;;;;1999.90;999.90;;;14.20;92.60;;;;;;4949834;28;20089;-87
2022/08/13 06:34:08;;;;;;;1999.90;999.90;;;14.30;93.20;;;;;;4940372;28;20035;-84
2022/08/13 06:36:36;;;;;;;1999.90;999.90;;;14.40;93.40;;;;;;4968377;28;20245;-81
2022/08/13 06:39:05;;;;;;;1999.90;999.90;;;14.50;91.90;;;;;;4952114;28;20483;-81
2022/08/13 06:41:32;;;;;;;1999.90;999.90;;;14.60;92.40;;;;;;4960704;28;20068;-81
2022/08/13 06:43:58;;;;;;;1999.90;999.90;;;14.70;91.50;;;;;;4946763;28;20027;-83
2022/08/13 06:46:28;;;;;;;1999.90;999.90;;;15.00;91.20;;;;;;4950342;28;20089;-84
2022/08/13 06:48:57;;;;;;;1999.90;999.90;;;15.10;92.20;;;;;;4960148;28;20053;-83
2022/08/13 06:51:22;;;;;;;1999.90;999.90;;;15.20;90.90;;;;;;4948295;28;20093;-85
2022/08/13 06:53:48;;;;;;;1999.90;999.90;;;15.30;90.20;;;;;;4964758;28;20039;-84
2022/08/13 06:56:22;;;;;;;1999.90;999.90;;;15.40;90.00;;;;;;4944475;28;20133;-84
2022/08/13 06:58:50;;;;;;;1999.90;999.90;;;15.60;89.90;;;;;;4962271;28;20371;-85
2022/08/13 07:01:19;;;;;;;1999.90;999.90;;;15.80;89.20;;;;;;4948572;28;20035;-83
2022/08/13 07:03:46;;;;;;;1999.90;999.90;;;16.00;86.60;;;;;;4965759;28;20058;-83
2022/08/13 07:06:23;;;;;;;287.98;257.02;;;16.10;85.90;;;;;;4948224;28;20388;-83
2022/08/13 07:08:50;;;;;;;1999.90;999.90;;;16.20;84.20;;;;;;4966143;28;20109;-84
2022/08/13 07:11:24;;;;;;;1999.90;999.90;;;16.30;87.70;;;;;;4945830;28;20036;-83
2022/08/13 07:14:01;;;;;;;1999.90;999.90;;;16.20;85.40;;;;;;4962286;28;20030;-84
2022/08/13 07:16:32;;;;;;;1999.90;999.90;;;16.20;85.30;;;;;;4965946;28;20038;-84
2022/08/13 07:19:00;;;;;;;1999.90;999.90;;;16.20;86.60;;;;;;4963349;28;20482;-83
2022/08/13 07:21:27;;;;;;;1999.90;999.90;;;16.50;83.20;;;;;;4966284;28;20063;-84
2022/08/13 07:23:53;;;;;;;1999.90;999.90;;;16.60;81.60;;;;;;4946128;28;20593;-83
2022/08/13 07:26:21;;;;;;;1999.90;999.90;;;16.40;82.00;;;;;;4916830;28;20447;-84
2022/08/13 07:28:49;;;;;;;1999.90;999.90;;;16.50;82.80;;;;;;4948508;28;20031;-83
2022/08/13 07:31:23;;;;;;;1999.90;999.90;;;16.60;82.90;;;;;;4931981;28;20035;-83
2022/08/13 07:33:51;;;;;;;1999.90;999.90;;;16.70;81.30;;;;;;4962683;28;20084;-84
2022/08/13 07:36:19;;;;;;;1999.90;999.90;;;16.60;81.60;;;;;;4959764;28;20177;-85
2022/08/13 07:38:46;;;;;;;1999.90;999.90;;;16.50;84.10;;;;;;4944072;28;20034;-82
2022/08/13 07:41:12;;;;;;;1999.90;999.90;;;16.60;82.20;;;;;;4948163;28;20034;-85
2022/08/13 07:43:43;;;;;;;1999.90;999.90;;;16.80;80.40;;;;;;4960884;28;20035;-79
2022/08/13 07:46:12;;;;;;;1999.90;999.90;;;16.70;80.30;;;;;;4963201;28;20031;-79
2022/08/13 07:48:40;;;;;;;1999.90;999.90;;;16.60;81.20;;;;;;4948432;28;20035;-81
2022/08/13 07:51:19;;;;;;;1999.90;999.90;;;16.60;80.80;;;;;;4948276;28;20043;-83
2022/08/13 07:53:50;;;;;;;1999.90;999.90;;;16.60;80.40;;;;;;4963468;28;20027;-82
2022/08/13 07:56:24;;;;;;;1999.90;999.90;;;16.70;80.20;;;;;;4963871;28;20174;-84
2022/08/13 07:58:50;;;;;;;1999.90;999.90;;;16.80;79.70;;;;;;4947838;28;20034;-86
2022/08/13 08:01:15;;;;;;;1999.90;999.90;;;16.90;80.30;;;;;;4964876;28;20065;-86
2022/08/13 08:03:45;;;;;;;1999.90;999.90;;;17.20;77.70;;;;;;4964830;28;20046;-85
2022/08/13 08:06:14;;;;;;;1999.90;999.90;;;17.40;78.10;;;;;;4968425;28;20027;-86
2022/08/13 08:08:42;;;;;;;1999.90;999.90;;;17.50;76.10;;;;;;4968159;28;20031;-88
2022/08/13 08:12:30;;;;;;;1999.90;999.90;;;17.70;75.90;;;;;;4937250;28;20945;-79
2022/08/13 08:14:00;;;;;;;1999.90;999.90;;;18.20;74.60;;;;;;4960546;28;20187;-80
2022/08/13 08:16:29;;;;;;;1999.90;999.90;;;18.70;72.70;;;;;;4962823;28;20429;-79
2022/08/13 08:18:55;;;;;;;1999.90;999.90;;;19.00;68.60;;;;;;4931293;28;20089;-79
2022/08/13 08:21:23;;;;;;;1999.90;999.90;;;19.20;67.30;;;;;;4963716;28;20398;-80
2022/08/13 08:23:52;;;;;;;1999.90;999.90;;;19.50;67.00;;;;;;4959238;28;20038;-79
2022/08/13 08:26:19;;;;;;;1096.43;983.72;;;19.60;64.10;;;;;;4947478;28;20034;-81
2022/08/13 08:28:46;;;;;;;1032.35;927.75;;;19.80;63.30;;;;;;4967207;28;20529;-79
2022/08/13 08:31:12;;;;;;;1096.03;775.33;;;19.90;62.40;;;;;;4965584;28;20506;-80
2022/08/13 08:33:42;;;;;;;1136.18;999.90;;;19.90;62.80;;;;;;4968108;28;20080;-80
2022/08/13 08:36:08;;;;;;;1051.85;957.30;;;20.20;60.50;;;;;;4965216;28;20019;-81
2022/08/13 08:44:23;;;;;;;1037.95;944.22;;;20.80;58.50;;;;;;4965315;28;20101;-81
2022/08/13 08:46:57;;;;;;;949.53;872.42;;;20.80;55.80;;;;;;4951434;28;20601;-80
2022/08/13 08:49:24;;;;;;;828.88;758.55;;;20.80;52.90;;;;;;4966482;28;20242;-86
2022/08/13 08:51:51;;;;;;;853.25;796.00;;;21.00;52.10;;;;;;4964775;28;20031;-86
2022/08/13 08:54:20;;;;;;;1034.90;937.47;;;21.00;51.70;;;;;;4952021;28;20035;-86
2022/08/13 08:56:47;;;;;;;946.22;872.70;;;21.20;54.70;;;;;;4969551;28;20489;-85
2022/08/13 08:59:15;;;;;;;976.95;886.67;;;21.50;53.80;;;;;;4965805;28;20030;-82
2022/08/13 09:01:43;;;;;;;977.45;902.92;;;21.30;50.40;;;;;;4967008;28;20027;-87
2022/08/13 09:04:10;;;;;;;1049.18;947.80;;;21.70;50.80;;;;;;4950766;28;20038;-87
2022/08/13 09:06:36;;;;;;;820.50;767.35;;;21.90;50.80;;;;;;4968081;28;20034;-86
2022/08/13 09:09:06;;;;;;;921.50;849.00;;;21.90;48.10;;;;;;4949357;28;20050;-87
2022/08/13 09:11:35;;;;;;;1000.45;923.47;;;22.00;49.50;;;;;;4959522;28;20030;-86
2022/08/13 09:14:08;;;;;;;1025.38;934.63;;;21.90;48.50;;;;;;4949506;28;20031;-85
2022/08/13 09:16:38;;;;;;;934.08;863.65;;;22.20;50.40;;;;;;4965142;28;20039;-87
2022/08/13 09:19:12;;;;;;;811.72;740.63;;;22.30;48.30;;;;;;4949231;28;20043;-86
2022/08/13 09:21:43;;;;;;;1050.80;950.60;;;22.50;47.00;;;;;;4964687;28;20483;-85
2022/08/13 09:24:11;;;;;;;1037.18;941.22;;;22.40;46.90;;;;;;4965284;28;20039;-87
2022/08/13 09:26:38;;;;;;;961.80;868.05;;;22.30;50.10;;;;;;4945816;28;20034;-87
2022/08/13 09:29:05;;;;;;;1053.75;957.83;;;22.50;45.20;;;;;;4956177;28;20042;-86
2022/08/13 09:31:30;;;;;;;961.67;885.03;;;22.50;45.90;;;;;;4966650;28;20034;-86
2022/08/13 09:33:56;;;;;;;986.03;905.70;;;22.60;46.30;;;;;;4949599;28;20027;-89
2022/08/13 09:36:24;;;;;;;857.42;794.60;;;22.90;44.70;;;;;;4949995;28;20383;-89
2022/08/13 09:38:51;;;;;;;912.63;845.33;;;23.10;46.00;;;;;;4948599;28;20438;-87
2022/08/13 09:41:35;;;;;;;739.90;694.50;;;23.20;44.50;;;;;;4934912;28;20042;-93
2022/08/13 09:44:01;;;;;;;829.88;765.53;;;23.10;42.80;;;;;;4967824;28;20113;-89
2022/08/13 09:46:28;;;;;;;913.63;840.08;;;23.20;43.70;;;;;;4949410;28;20780;-86
2022/08/13 09:48:55;;;;;;;1196.75;991.53;;;23.70;43.80;;;;;;4946257;28;20046;-91
2022/08/13 09:51:22;;;;;;;911.45;847.95;;;23.80;43.20;;;;;;4957965;28;20070;-91
2022/08/13 09:53:47;;;;;;;900.63;836.58;;;24.00;42.90;;;;;;4966414;28;20368;-86
2022/08/13 09:56:17;;;;;;;897.10;819.72;;;24.00;41.70;;;;;;4966625;28;20058;-89
2022/08/13 09:58:50;;;;;;;678.50;638.05;;;24.10;41.80;;;;;;4943838;28;20046;-89
2022/08/13 10:01:17;;;;;;;881.60;818.97;;;23.80;39.60;;;;;;4957175;28;20269;-88
2022/08/13 10:03:45;;;;;;;867.00;807.20;;;24.00;42.50;;;;;;4949058;28;20042;-89
2022/08/13 10:06:11;;;;;;;889.00;828.28;;;24.20;40.50;;;;;;4927827;29;20069;-89
2022/08/13 10:08:37;;;;;;;860.55;798.97;;;24.40;42.50;;;;;;4948857;29;20075;-91
2022/08/13 10:11:04;;;;;;;736.92;693.03;;;24.70;40.40;;;;;;4929325;29;20027;-90
2022/08/13 10:13:29;;;;;;;933.70;858.28;;;24.90;39.60;;;;;;4930148;29;20039;-86
2022/08/13 10:15:55;;;;;;;926.70;853.20;;;25.00;39.20;;;;;;4933873;29;20027;-89
2022/08/13 10:18:21;;;;;;;879.78;815.40;;;24.90;39.60;;;;;;4949226;29;20054;-85
2022/08/13 10:20:48;;;;;;;609.60;576.85;;;24.80;40.20;;;;;;4947818;29;20106;-88
2022/08/13 10:23:16;;;;;;;705.42;658.58;;;24.70;36.80;;;;;;4947313;29;20106;-88
2022/08/13 10:25:44;;;;;;;790.25;739.22;;;24.30;35.10;;;;;;4947505;29;20423;-87
2022/08/13 10:28:23;;;;;;;839.78;774.63;;;24.60;38.40;;;;;;4948058;28;20032;-93
2022/08/13 10:30:50;;;;;;;682.45;642.30;;;24.80;37.10;;;;;;4947545;28;20031;-87
2022/08/13 10:33:17;;;;;;;687.45;649.05;;;24.80;35.40;;;;;;4964679;28;20029;-82
2022/08/13 10:35:44;;;;;;;729.70;686.28;;;25.10;36.20;;;;;;4966113;28;20153;-87
2022/08/13 10:38:16;;;;;;;702.97;660.92;;;25.30;36.10;;;;;;4952533;28;20027;-89
2022/08/13 10:40:42;;;;;;;760.47;716.15;;;25.60;34.40;;;;;;4966595;28;20027;-91
2022/08/13 10:43:08;;;;;;;710.35;670.03;;;25.70;35.20;;;;;;4952998;28;20323;-90
2022/08/13 10:45:34;;;;;;;998.13;909.75;;;25.60;33.50;;;;;;4954376;28;20126;-92
2022/08/13 10:48:01;;;;;;;782.25;732.83;;;25.50;35.50;;;;;;4950163;28;20039;-86
2022/08/13 10:50:30;;;;;;;692.85;642.38;;;25.60;35.50;;;;;;4963916;28;20038;-89
2022/08/13 10:52:57;;;;;;;659.08;621.40;;;25.90;34.00;;;;;;4966678;28;20166;-87
2022/08/13 10:55:24;;;;;;;848.90;661.83;;;26.20;34.00;;;;;;4961569;28;20693;-90
2022/08/13 10:57:50;;;;;;;578.28;545.90;;;26.10;33.50;;;;;;4960739;28;20041;-92
2022/08/13 11:00:16;;;;;;;610.25;569.75;;;26.20;32.60;;;;;;4965680;28;20038;-90
2022/08/13 11:02:43;;;;;;;470.23;448.98;;;25.90;30.20;;;;;;4966389;28;20027;-90
2022/08/13 11:05:10;;;;;;;642.05;605.55;;;26.60;28.70;;;;;;4967627;28;20031;-89
2022/08/13 11:07:37;;;;;;;573.63;540.13;;;26.60;30.40;;;;;;4966258;28;20038;-91
2022/08/13 11:10:08;;;;;;;272.38;261.30;;;27.10;28.30;;;;;;4951239;28;20038;-90
2022/08/13 11:12:34;;;;;;;461.45;437.65;;;27.80;27.20;;;;;;4968493;28;20030;-90
2022/08/13 11:15:01;;;;;;;398.58;378.27;;;28.00;28.30;;;;;;4950059;28;20034;-92
2022/08/13 11:17:27;;;;;;;278.85;266.48;;;27.20;27.50;;;;;;4966116;28;20391;-92
2022/08/13 11:19:53;;;;;;;428.98;401.48;;;27.20;26.40;;;;;;4951455;28;20178;-91
2022/08/13 11:22:28;;;;;;;295.15;281.80;;;27.50;26.00;;;;;;4947322;28;20030;-84
2022/08/13 11:24:55;;;;;;;308.45;294.38;;;27.50;25.70;;;;;;4964227;28;20441;-84
2022/08/13 11:27:21;;;;;;;405.42;385.90;;;27.60;25.80;;;;;;4945661;28;20038;-85
2022/08/13 11:29:46;;;;;;;419.45;399.83;;;28.20;26.00;;;;;;4957120;28;20024;-84
2022/08/13 11:32:12;;;;;;;310.52;297.00;;;28.60;27.10;;;;;;4951454;28;20031;-84
2022/08/13 11:34:37;;;;;;;402.77;381.77;;;29.40;25.00;;;;;;4944865;29;20101;-85
2022/08/13 11:37:03;;;;;;;340.52;324.70;;;28.50;25.60;;;;;;4951577;28;20558;-85
2022/08/13 11:39:29;;;;;;;367.20;350.13;;;28.20;25.10;;;;;;4942415;28;20065;-86
2022/08/13 11:41:54;;;;;;;393.13;371.95;;;28.60;26.30;;;;;;4946834;29;20086;-88
2022/08/13 11:44:20;;;;;;;365.42;348.48;;;28.70;24.90;;;;;;4949740;29;20027;-88
2022/08/13 11:46:46;;;;;;;312.70;299.15;;;29.10;25.70;;;;;;4948987;29;20454;-86
2022/08/13 11:49:12;;;;;;;484.95;454.15;;;29.30;24.90;;;;;;4953087;28;20428;-89
2022/08/13 11:51:38;;;;;;;303.58;290.42;;;29.00;24.50;;;;;;4949800;29;20074;-87
2022/08/13 11:54:04;;;;;;;404.25;382.92;;;28.80;24.40;;;;;;4946109;28;20558;-88
2022/08/13 11:56:30;;;;;;;376.55;357.67;;;28.90;25.90;;;;;;4948601;29;20051;-86
2022/08/13 11:58:55;;;;;;;376.95;361.20;;;29.30;25.40;;;;;;4948043;29;20039;-88
2022/08/13 12:01:22;;;;;;;290.05;277.60;;;29.30;24.90;;;;;;4945752;29;20059;-85
2022/08/13 12:03:48;;;;;;;415.08;394.67;;;28.90;23.60;;;;;;4947519;29;20069;-86
2022/08/13 12:06:14;;;;;;;496.38;471.33;;;29.10;24.20;;;;;;4948072;29;20521;-86
2022/08/13 12:08:40;;;;;;;438.35;418.08;;;29.90;24.70;;;;;;4949576;29;20507;-86
2022/08/13 12:11:05;;;;;;;288.95;276.20;;;30.80;22.40;;;;;;4942307;28;20070;-87
2022/08/13 12:13:31;;;;;;;395.90;377.30;;;30.10;22.20;;;;;;4956777;28;20035;-90
2022/08/13 12:15:57;;;;;;;429.65;409.58;;;30.60;21.70;;;;;;4947311;29;20054;-85
2022/08/13 12:18:22;;;;;;;406.02;386.40;;;30.60;22.00;;;;;;4949597;29;20458;-85
2022/08/13 12:20:48;;;;;;;568.08;538.05;;;30.40;23.10;;;;;;4931772;29;20479;-85
2022/08/13 12:23:14;;;;;;;478.80;454.67;;;30.20;25.30;;;;;;4950203;29;20479;-86
2022/08/13 12:25:40;;;;;;;335.15;320.38;;;30.40;22.30;;;;;;4949478;29;20053;-86
2022/08/13 12:28:20;;;;;;;371.77;354.65;;;30.70;23.10;;;;;;4930611;29;20028;-86
2022/08/13 12:30:51;;;;;;;551.53;523.13;;;30.40;23.40;;;;;;4949058;28;20065;-86